sensor_id;sensor_type;location;lat;lon;timestamp;P1;durP1;ratioP1;P2;durP2;ratioP2
51724;SDS011;37801;53.224;6.552;2023-05-27T00:01:06;10.00;;;3.55;;
51724;SDS011;37801;53.224;6.552;2023-05-27T00:03:32;8.18;;;3.22;;
51724;SDS011;37801;53.224;6.552;2023-05-27T00:06:00;10.23;;;2.92;;
51724;SDS011;37801;53.224;6.552;2023-05-27T00:08:26;8.50;;;2.97;;
51724;SDS011;37801;53.224;6.552;2023-05-27T00:10:52;9.23;;;3.17;;
51724;SDS011;37801;53.224;6.552;2023-05-27T00:13:18;10.00;;;3.55;;
51724;SDS011;37801;53.224;6.552;2023-05-27T00:15:44;10.68;;;3.03;;
51724;SDS011;37801;53.224;6.552;2023-05-27T00:18:10;13.10;;;3.30;;
51724;SDS011;37801;53.224;6.552;2023-05-27T00:20:37;11.38;;;3.05;;
51724;SDS011;37801;53.224;6.552;2023-05-27T00:23:03;11.57;;;2.90;;
51724;SDS011;37801;53.224;6.552;2023-05-27T00:25:29;11.15;;;3.30;;
51724;SDS011;37801;53.224;6.552;2023-05-27T00:27:56;11.90;;;3.08;;
51724;SDS011;37801;53.224;6.552;2023-05-27T00:30:22;10.25;;;3.38;;
51724;SDS011;37801;53.224;6.552;2023-05-27T00:32:48;11.95;;;3.58;;
51724;SDS011;37801;53.224;6.552;2023-05-27T00:35:15;12.63;;;3.50;;
51724;SDS011;37801;53.224;6.552;2023-05-27T00:37:41;14.27;;;3.38;;
51724;SDS011;37801;53.224;6.552;2023-05-27T00:40:11;11.88;;;3.55;;
51724;SDS011;37801;53.224;6.552;2023-05-27T00:42:37;9.00;;;2.97;;
51724;SDS011;37801;53.224;6.552;2023-05-27T00:45:03;12.07;;;2.90;;
51724;SDS011;37801;53.224;6.552;2023-05-27T00:47:30;9.63;;;3.22;;
51724;SDS011;37801;53.224;6.552;2023-05-27T00:49:57;11.13;;;3.20;;
51724;SDS011;37801;53.224;6.552;2023-05-27T00:52:24;11.50;;;3.20;;
51724;SDS011;37801;53.224;6.552;2023-05-27T00:54:53;11.48;;;3.50;;
51724;SDS011;37801;53.224;6.552;2023-05-27T00:57:21;9.07;;;3.40;;
51724;SDS011;37801;53.224;6.552;2023-05-27T00:59:47;10.55;;;3.00;;
51724;SDS011;37801;53.224;6.552;2023-05-27T01:02:14;9.55;;;2.63;;
51724;SDS011;37801;53.224;6.552;2023-05-27T01:04:40;8.95;;;3.10;;
51724;SDS011;37801;53.224;6.552;2023-05-27T01:09:42;9.43;;;2.55;;
51724;SDS011;37801;53.224;6.552;2023-05-27T01:12:16;11.80;;;3.30;;
51724;SDS011;37801;53.224;6.552;2023-05-27T01:14:44;8.40;;;2.63;;
51724;SDS011;37801;53.224;6.552;2023-05-27T01:17:11;10.60;;;3.10;;
51724;SDS011;37801;53.224;6.552;2023-05-27T01:19:41;11.48;;;3.33;;
51724;SDS011;37801;53.224;6.552;2023-05-27T01:22:14;9.57;;;3.00;;
51724;SDS011;37801;53.224;6.552;2023-05-27T01:24:40;8.75;;;2.63;;
51724;SDS011;37801;53.224;6.552;2023-05-27T01:27:07;8.60;;;3.22;;
51724;SDS011;37801;53.224;6.552;2023-05-27T01:29:33;9.80;;;3.33;;
51724;SDS011;37801;53.224;6.552;2023-05-27T01:34:33;8.32;;;3.03;;
51724;SDS011;37801;53.224;6.552;2023-05-27T01:37:02;9.05;;;3.05;;
51724;SDS011;37801;53.224;6.552;2023-05-27T01:39:30;11.88;;;2.70;;
51724;SDS011;37801;53.224;6.552;2023-05-27T01:41:57;8.32;;;3.22;;
51724;SDS011;37801;53.224;6.552;2023-05-27T01:44:27;8.05;;;2.72;;
51724;SDS011;37801;53.224;6.552;2023-05-27T01:46:58;9.82;;;2.70;;
51724;SDS011;37801;53.224;6.552;2023-05-27T01:49:25;13.68;;;3.10;;
51724;SDS011;37801;53.224;6.552;2023-05-27T01:51:51;12.50;;;3.13;;
51724;SDS011;37801;53.224;6.552;2023-05-27T01:54:17;10.35;;;3.20;;
51724;SDS011;37801;53.224;6.552;2023-05-27T01:56:43;10.93;;;2.90;;
51724;SDS011;37801;53.224;6.552;2023-05-27T01:59:09;6.88;;;2.65;;
51724;SDS011;37801;53.224;6.552;2023-05-27T02:01:35;13.30;;;3.25;;
51724;SDS011;37801;53.224;6.552;2023-05-27T02:04:01;11.20;;;2.80;;
51724;SDS011;37801;53.224;6.552;2023-05-27T02:06:29;9.95;;;2.83;;
51724;SDS011;37801;53.224;6.552;2023-05-27T02:08:55;8.70;;;2.78;;
51724;SDS011;37801;53.224;6.552;2023-05-27T02:11:21;10.13;;;2.75;;
51724;SDS011;37801;53.224;6.552;2023-05-27T02:13:47;7.80;;;2.78;;
51724;SDS011;37801;53.224;6.552;2023-05-27T02:16:14;14.40;;;3.70;;
51724;SDS011;37801;53.224;6.552;2023-05-27T02:18:40;8.90;;;3.08;;
51724;SDS011;37801;53.224;6.552;2023-05-27T02:21:07;13.50;;;3.20;;
51724;SDS011;37801;53.224;6.552;2023-05-27T02:23:33;13.43;;;3.42;;
51724;SDS011;37801;53.224;6.552;2023-05-27T02:25:59;9.15;;;2.63;;
51724;SDS011;37801;53.224;6.552;2023-05-27T02:28:26;11.38;;;3.25;;
51724;SDS011;37801;53.224;6.552;2023-05-27T02:30:52;10.07;;;3.38;;
51724;SDS011;37801;53.224;6.552;2023-05-27T02:33:18;9.98;;;3.13;;
51724;SDS011;37801;53.224;6.552;2023-05-27T02:35:44;9.93;;;3.15;;
51724;SDS011;37801;53.224;6.552;2023-05-27T02:38:10;10.43;;;3.40;;
51724;SDS011;37801;53.224;6.552;2023-05-27T02:40:37;10.00;;;3.17;;
51724;SDS011;37801;53.224;6.552;2023-05-27T02:43:03;11.18;;;3.50;;
51724;SDS011;37801;53.224;6.552;2023-05-27T02:45:29;11.10;;;2.97;;
51724;SDS011;37801;53.224;6.552;2023-05-27T02:47:55;12.52;;;3.05;;
51724;SDS011;37801;53.224;6.552;2023-05-27T02:50:24;11.25;;;3.03;;
51724;SDS011;37801;53.224;6.552;2023-05-27T02:52:51;8.70;;;3.13;;
51724;SDS011;37801;53.224;6.552;2023-05-27T02:55:17;10.70;;;3.72;;
51724;SDS011;37801;53.224;6.552;2023-05-27T02:57:43;12.88;;;3.10;;
51724;SDS011;37801;53.224;6.552;2023-05-27T03:00:10;10.75;;;3.15;;
51724;SDS011;37801;53.224;6.552;2023-05-27T03:02:37;8.88;;;2.70;;
51724;SDS011;37801;53.224;6.552;2023-05-27T03:05:03;9.75;;;2.30;;
51724;SDS011;37801;53.224;6.552;2023-05-27T03:07:30;11.65;;;2.67;;
51724;SDS011;37801;53.224;6.552;2023-05-27T03:09:57;10.52;;;3.30;;
51724;SDS011;37801;53.224;6.552;2023-05-27T03:12:23;11.68;;;2.72;;
51724;SDS011;37801;53.224;6.552;2023-05-27T03:14:50;13.80;;;3.40;;
51724;SDS011;37801;53.224;6.552;2023-05-27T03:17:17;10.95;;;3.22;;
51724;SDS011;37801;53.224;6.552;2023-05-27T03:19:43;11.13;;;3.08;;
51724;SDS011;37801;53.224;6.552;2023-05-27T03:22:10;10.75;;;3.45;;
51724;SDS011;37801;53.224;6.552;2023-05-27T03:24:36;10.60;;;2.97;;
51724;SDS011;37801;53.224;6.552;2023-05-27T03:27:02;9.95;;;2.70;;
51724;SDS011;37801;53.224;6.552;2023-05-27T03:29:29;9.48;;;3.10;;
51724;SDS011;37801;53.224;6.552;2023-05-27T03:31:55;7.85;;;2.92;;
51724;SDS011;37801;53.224;6.552;2023-05-27T03:34:22;12.18;;;2.97;;
51724;SDS011;37801;53.224;6.552;2023-05-27T03:36:48;10.57;;;3.15;;
51724;SDS011;37801;53.224;6.552;2023-05-27T03:39:15;11.52;;;2.90;;
51724;SDS011;37801;53.224;6.552;2023-05-27T03:41:42;9.13;;;2.55;;
51724;SDS011;37801;53.224;6.552;2023-05-27T03:44:08;9.85;;;2.67;;
51724;SDS011;37801;53.224;6.552;2023-05-27T03:46:34;8.13;;;2.90;;
51724;SDS011;37801;53.224;6.552;2023-05-27T03:49:01;10.95;;;3.20;;
51724;SDS011;37801;53.224;6.552;2023-05-27T03:51:27;11.07;;;3.25;;
51724;SDS011;37801;53.224;6.552;2023-05-27T03:53:53;11.02;;;3.42;;
51724;SDS011;37801;53.224;6.552;2023-05-27T03:56:20;13.30;;;3.47;;
51724;SDS011;37801;53.224;6.552;2023-05-27T03:58:47;10.82;;;3.08;;
51724;SDS011;37801;53.224;6.552;2023-05-27T04:01:14;13.00;;;3.42;;
51724;SDS011;37801;53.224;6.552;2023-05-27T04:03:42;8.43;;;3.15;;
51724;SDS011;37801;53.224;6.552;2023-05-27T04:06:08;15.05;;;3.50;;
51724;SDS011;37801;53.224;6.552;2023-05-27T04:08:35;12.40;;;3.30;;
51724;SDS011;37801;53.224;6.552;2023-05-27T04:11:02;10.90;;;3.22;;
51724;SDS011;37801;53.224;6.552;2023-05-27T04:13:28;7.57;;;2.95;;
51724;SDS011;37801;53.224;6.552;2023-05-27T04:15:55;9.80;;;2.90;;
51724;SDS011;37801;53.224;6.552;2023-05-27T04:18:22;11.90;;;3.33;;
51724;SDS011;37801;53.224;6.552;2023-05-27T04:20:49;12.15;;;2.80;;
51724;SDS011;37801;53.224;6.552;2023-05-27T04:23:15;10.75;;;2.90;;
51724;SDS011;37801;53.224;6.552;2023-05-27T04:25:41;9.88;;;3.05;;
51724;SDS011;37801;53.224;6.552;2023-05-27T04:28:08;9.35;;;2.58;;
51724;SDS011;37801;53.224;6.552;2023-05-27T04:30:34;14.00;;;3.47;;
51724;SDS011;37801;53.224;6.552;2023-05-27T04:33:04;11.23;;;3.58;;
51724;SDS011;37801;53.224;6.552;2023-05-27T04:35:30;11.75;;;3.38;;
51724;SDS011;37801;53.224;6.552;2023-05-27T04:37:57;8.82;;;3.45;;
51724;SDS011;37801;53.224;6.552;2023-05-27T04:40:26;11.40;;;3.47;;
51724;SDS011;37801;53.224;6.552;2023-05-27T04:42:54;12.13;;;3.35;;
51724;SDS011;37801;53.224;6.552;2023-05-27T04:45:21;11.18;;;2.85;;
51724;SDS011;37801;53.224;6.552;2023-05-27T04:47:47;11.95;;;3.63;;
51724;SDS011;37801;53.224;6.552;2023-05-27T04:50:13;12.13;;;3.42;;
51724;SDS011;37801;53.224;6.552;2023-05-27T04:52:39;11.77;;;3.40;;
51724;SDS011;37801;53.224;6.552;2023-05-27T04:55:07;15.25;;;3.85;;
51724;SDS011;37801;53.224;6.552;2023-05-27T04:57:34;16.10;;;3.30;;
51724;SDS011;37801;53.224;6.552;2023-05-27T05:00:01;14.68;;;3.65;;
51724;SDS011;37801;53.224;6.552;2023-05-27T05:02:32;12.10;;;3.42;;
51724;SDS011;37801;53.224;6.552;2023-05-27T05:05:06;9.52;;;2.63;;
51724;SDS011;37801;53.224;6.552;2023-05-27T05:07:33;11.52;;;3.28;;
51724;SDS011;37801;53.224;6.552;2023-05-27T05:10:03;11.68;;;3.10;;
51724;SDS011;37801;53.224;6.552;2023-05-27T05:12:29;10.57;;;3.15;;
51724;SDS011;37801;53.224;6.552;2023-05-27T05:14:56;12.93;;;3.47;;
51724;SDS011;37801;53.224;6.552;2023-05-27T05:17:22;10.82;;;3.20;;
51724;SDS011;37801;53.224;6.552;2023-05-27T05:19:49;14.15;;;3.70;;
51724;SDS011;37801;53.224;6.552;2023-05-27T05:22:16;9.63;;;2.85;;
51724;SDS011;37801;53.224;6.552;2023-05-27T05:24:47;14.77;;;3.30;;
51724;SDS011;37801;53.224;6.552;2023-05-27T05:27:13;8.80;;;2.83;;
51724;SDS011;37801;53.224;6.552;2023-05-27T05:29:39;12.95;;;3.47;;
51724;SDS011;37801;53.224;6.552;2023-05-27T05:32:05;12.32;;;3.40;;
51724;SDS011;37801;53.224;6.552;2023-05-27T05:34:32;13.68;;;3.03;;
51724;SDS011;37801;53.224;6.552;2023-05-27T05:36:58;10.48;;;2.92;;
51724;SDS011;37801;53.224;6.552;2023-05-27T05:39:24;10.30;;;2.70;;
51724;SDS011;37801;53.224;6.552;2023-05-27T05:41:50;10.55;;;3.28;;
51724;SDS011;37801;53.224;6.552;2023-05-27T05:44:17;10.95;;;2.67;;
51724;SDS011;37801;53.224;6.552;2023-05-27T05:46:43;10.45;;;2.92;;
51724;SDS011;37801;53.224;6.552;2023-05-27T05:49:09;9.65;;;3.17;;
51724;SDS011;37801;53.224;6.552;2023-05-27T05:51:35;10.63;;;3.25;;
51724;SDS011;37801;53.224;6.552;2023-05-27T05:54:01;9.90;;;3.25;;
51724;SDS011;37801;53.224;6.552;2023-05-27T05:56:27;15.85;;;3.15;;
51724;SDS011;37801;53.224;6.552;2023-05-27T05:58:54;13.90;;;3.38;;
51724;SDS011;37801;53.224;6.552;2023-05-27T06:01:20;11.27;;;3.20;;
51724;SDS011;37801;53.224;6.552;2023-05-27T06:03:46;14.35;;;3.78;;
51724;SDS011;37801;53.224;6.552;2023-05-27T06:06:12;12.98;;;3.70;;
51724;SDS011;37801;53.224;6.552;2023-05-27T06:08:40;11.85;;;3.22;;
51724;SDS011;37801;53.224;6.552;2023-05-27T06:11:06;14.75;;;3.42;;
51724;SDS011;37801;53.224;6.552;2023-05-27T06:13:32;11.27;;;3.30;;
51724;SDS011;37801;53.224;6.552;2023-05-27T06:15:58;12.50;;;3.55;;
51724;SDS011;37801;53.224;6.552;2023-05-27T06:18:24;11.52;;;3.67;;
51724;SDS011;37801;53.224;6.552;2023-05-27T06:20:50;12.35;;;3.40;;
51724;SDS011;37801;53.224;6.552;2023-05-27T06:23:17;13.93;;;3.63;;
51724;SDS011;37801;53.224;6.552;2023-05-27T06:25:43;13.35;;;3.40;;
51724;SDS011;37801;53.224;6.552;2023-05-27T06:28:09;13.55;;;3.60;;
51724;SDS011;37801;53.224;6.552;2023-05-27T06:30:35;14.48;;;3.65;;
51724;SDS011;37801;53.224;6.552;2023-05-27T06:33:02;12.57;;;3.42;;
51724;SDS011;37801;53.224;6.552;2023-05-27T06:35:28;16.48;;;4.50;;
51724;SDS011;37801;53.224;6.552;2023-05-27T06:37:54;14.15;;;4.18;;
51724;SDS011;37801;53.224;6.552;2023-05-27T06:40:20;11.07;;;3.53;;
51724;SDS011;37801;53.224;6.552;2023-05-27T06:42:46;12.68;;;3.75;;
51724;SDS011;37801;53.224;6.552;2023-05-27T06:45:13;15.40;;;3.42;;
51724;SDS011;37801;53.224;6.552;2023-05-27T06:47:39;11.98;;;3.72;;
51724;SDS011;37801;53.224;6.552;2023-05-27T06:50:05;11.43;;;3.67;;
51724;SDS011;37801;53.224;6.552;2023-05-27T06:52:32;19.42;;;4.07;;
51724;SDS011;37801;53.224;6.552;2023-05-27T06:54:58;15.43;;;4.13;;
51724;SDS011;37801;53.224;6.552;2023-05-27T06:57:24;15.05;;;3.90;;
51724;SDS011;37801;53.224;6.552;2023-05-27T06:59:50;12.50;;;3.50;;
51724;SDS011;37801;53.224;6.552;2023-05-27T07:02:16;18.25;;;4.32;;
51724;SDS011;37801;53.224;6.552;2023-05-27T07:04:42;18.63;;;4.85;;
51724;SDS011;37801;53.224;6.552;2023-05-27T07:07:08;16.30;;;3.97;;
51724;SDS011;37801;53.224;6.552;2023-05-27T07:09:34;14.23;;;3.40;;
51724;SDS011;37801;53.224;6.552;2023-05-27T07:12:01;14.00;;;3.85;;
51724;SDS011;37801;53.224;6.552;2023-05-27T07:14:27;13.40;;;3.75;;
51724;SDS011;37801;53.224;6.552;2023-05-27T07:16:53;12.20;;;3.72;;
51724;SDS011;37801;53.224;6.552;2023-05-27T07:19:20;11.48;;;3.60;;
51724;SDS011;37801;53.224;6.552;2023-05-27T07:21:47;13.00;;;3.40;;
51724;SDS011;37801;53.224;6.552;2023-05-27T07:24:13;14.93;;;4.05;;
51724;SDS011;37801;53.224;6.552;2023-05-27T07:26:40;14.95;;;3.85;;
51724;SDS011;37801;53.224;6.552;2023-05-27T07:29:06;16.15;;;4.38;;
51724;SDS011;37801;53.224;6.552;2023-05-27T07:31:32;11.93;;;3.75;;
51724;SDS011;37801;53.224;6.552;2023-05-27T07:33:58;15.70;;;3.95;;
51724;SDS011;37801;53.224;6.552;2023-05-27T07:36:24;13.10;;;3.53;;
51724;SDS011;37801;53.224;6.552;2023-05-27T07:38:50;16.35;;;4.50;;
51724;SDS011;37801;53.224;6.552;2023-05-27T07:41:17;14.70;;;3.92;;
51724;SDS011;37801;53.224;6.552;2023-05-27T07:43:43;13.45;;;3.70;;
51724;SDS011;37801;53.224;6.552;2023-05-27T07:46:09;14.13;;;4.05;;
51724;SDS011;37801;53.224;6.552;2023-05-27T07:48:35;13.52;;;3.85;;
51724;SDS011;37801;53.224;6.552;2023-05-27T07:51:01;13.43;;;3.65;;
51724;SDS011;37801;53.224;6.552;2023-05-27T07:53:27;14.63;;;4.00;;
51724;SDS011;37801;53.224;6.552;2023-05-27T07:55:54;19.15;;;4.18;;
51724;SDS011;37801;53.224;6.552;2023-05-27T07:58:20;12.85;;;3.85;;
51724;SDS011;37801;53.224;6.552;2023-05-27T08:00:46;15.25;;;4.40;;
51724;SDS011;37801;53.224;6.552;2023-05-27T08:03:12;12.13;;;3.80;;
51724;SDS011;37801;53.224;6.552;2023-05-27T08:05:38;11.43;;;3.47;;
51724;SDS011;37801;53.224;6.552;2023-05-27T08:08:04;13.93;;;4.10;;
51724;SDS011;37801;53.224;6.552;2023-05-27T08:10:31;16.13;;;4.38;;
51724;SDS011;37801;53.224;6.552;2023-05-27T08:12:57;17.52;;;4.20;;
51724;SDS011;37801;53.224;6.552;2023-05-27T08:15:23;12.15;;;4.20;;
51724;SDS011;37801;53.224;6.552;2023-05-27T08:17:49;19.48;;;4.70;;
51724;SDS011;37801;53.224;6.552;2023-05-27T08:20:15;15.20;;;4.00;;
51724;SDS011;37801;53.224;6.552;2023-05-27T08:22:41;15.07;;;3.88;;
51724;SDS011;37801;53.224;6.552;2023-05-27T08:25:08;14.63;;;3.63;;
51724;SDS011;37801;53.224;6.552;2023-05-27T08:27:44;15.57;;;3.92;;
51724;SDS011;37801;53.224;6.552;2023-05-27T08:30:11;15.02;;;4.57;;
51724;SDS011;37801;53.224;6.552;2023-05-27T08:32:37;12.63;;;3.63;;
51724;SDS011;37801;53.224;6.552;2023-05-27T08:35:04;15.38;;;3.95;;
51724;SDS011;37801;53.224;6.552;2023-05-27T08:37:30;16.60;;;4.30;;
51724;SDS011;37801;53.224;6.552;2023-05-27T08:39:56;17.48;;;4.65;;
51724;SDS011;37801;53.224;6.552;2023-05-27T08:42:23;17.13;;;3.90;;
51724;SDS011;37801;53.224;6.552;2023-05-27T08:44:49;16.55;;;4.38;;
51724;SDS011;37801;53.224;6.552;2023-05-27T08:47:16;11.75;;;3.92;;
51724;SDS011;37801;53.224;6.552;2023-05-27T08:49:42;15.23;;;4.18;;
51724;SDS011;37801;53.224;6.552;2023-05-27T08:52:11;14.65;;;3.65;;
51724;SDS011;37801;53.224;6.552;2023-05-27T08:54:39;13.65;;;4.03;;
51724;SDS011;37801;53.224;6.552;2023-05-27T08:57:06;11.73;;;3.88;;
51724;SDS011;37801;53.224;6.552;2023-05-27T08:59:33;14.35;;;3.72;;
51724;SDS011;37801;53.224;6.552;2023-05-27T09:02:00;15.63;;;4.28;;
51724;SDS011;37801;53.224;6.552;2023-05-27T09:04:27;11.55;;;3.95;;
51724;SDS011;37801;53.224;6.552;2023-05-27T09:06:54;13.30;;;3.90;;
51724;SDS011;37801;53.224;6.552;2023-05-27T09:09:20;18.88;;;4.50;;
51724;SDS011;37801;53.224;6.552;2023-05-27T09:11:46;14.98;;;3.88;;
51724;SDS011;37801;53.224;6.552;2023-05-27T09:14:21;18.95;;;4.53;;
51724;SDS011;37801;53.224;6.552;2023-05-27T09:16:47;12.20;;;3.78;;
51724;SDS011;37801;53.224;6.552;2023-05-27T09:19:17;10.90;;;3.40;;
51724;SDS011;37801;53.224;6.552;2023-05-27T09:21:43;12.90;;;3.35;;
51724;SDS011;37801;53.224;6.552;2023-05-27T09:24:10;14.38;;;4.15;;
51724;SDS011;37801;53.224;6.552;2023-05-27T09:26:37;9.40;;;3.78;;
51724;SDS011;37801;53.224;6.552;2023-05-27T09:29:07;11.70;;;3.35;;
51724;SDS011;37801;53.224;6.552;2023-05-27T09:31:39;12.45;;;3.30;;
51724;SDS011;37801;53.224;6.552;2023-05-27T09:34:12;14.57;;;3.95;;
51724;SDS011;37801;53.224;6.552;2023-05-27T09:36:45;11.43;;;3.72;;
51724;SDS011;37801;53.224;6.552;2023-05-27T09:41:38;11.23;;;3.50;;
51724;SDS011;37801;53.224;6.552;2023-05-27T09:44:05;12.20;;;3.78;;
51724;SDS011;37801;53.224;6.552;2023-05-27T09:46:32;13.80;;;4.13;;
51724;SDS011;37801;53.224;6.552;2023-05-27T09:48:58;11.73;;;3.47;;
51724;SDS011;37801;53.224;6.552;2023-05-27T09:51:28;14.20;;;3.53;;
51724;SDS011;37801;53.224;6.552;2023-05-27T09:53:55;13.20;;;3.65;;
51724;SDS011;37801;53.224;6.552;2023-05-27T09:56:25;12.77;;;4.10;;
51724;SDS011;37801;53.224;6.552;2023-05-27T09:58:55;8.73;;;3.63;;
51724;SDS011;37801;53.224;6.552;2023-05-27T10:01:21;12.88;;;4.20;;
51724;SDS011;37801;53.224;6.552;2023-05-27T10:03:51;9.77;;;3.88;;
51724;SDS011;37801;53.224;6.552;2023-05-27T10:06:17;12.00;;;3.67;;
51724;SDS011;37801;53.224;6.552;2023-05-27T10:08:44;12.93;;;4.47;;
51724;SDS011;37801;53.224;6.552;2023-05-27T10:11:11;11.45;;;3.63;;
51724;SDS011;37801;53.224;6.552;2023-05-27T10:13:37;11.13;;;3.95;;
51724;SDS011;37801;53.224;6.552;2023-05-27T10:16:04;13.63;;;3.83;;
51724;SDS011;37801;53.224;6.552;2023-05-27T10:18:31;12.48;;;3.75;;
51724;SDS011;37801;53.224;6.552;2023-05-27T10:20:59;12.50;;;4.00;;
51724;SDS011;37801;53.224;6.552;2023-05-27T10:23:26;13.02;;;4.45;;
51724;SDS011;37801;53.224;6.552;2023-05-27T10:26:06;14.68;;;4.32;;
51724;SDS011;37801;53.224;6.552;2023-05-27T10:28:33;10.48;;;3.75;;
51724;SDS011;37801;53.224;6.552;2023-05-27T10:33:33;9.77;;;3.63;;
51724;SDS011;37801;53.224;6.552;2023-05-27T10:36:06;12.05;;;3.78;;
51724;SDS011;37801;53.224;6.552;2023-05-27T10:40:59;13.48;;;4.25;;
51724;SDS011;37801;53.224;6.552;2023-05-27T10:43:27;12.82;;;3.80;;
51724;SDS011;37801;53.224;6.552;2023-05-27T10:46:12;15.55;;;3.78;;
51724;SDS011;37801;53.224;6.552;2023-05-27T10:48:38;12.05;;;3.83;;
51724;SDS011;37801;53.224;6.552;2023-05-27T10:51:07;12.18;;;4.30;;
51724;SDS011;37801;53.224;6.552;2023-05-27T10:53:36;12.55;;;4.15;;
51724;SDS011;37801;53.224;6.552;2023-05-27T10:56:03;15.75;;;4.20;;
51724;SDS011;37801;53.224;6.552;2023-05-27T10:58:29;11.95;;;4.10;;
51724;SDS011;37801;53.224;6.552;2023-05-27T11:00:59;12.23;;;4.03;;
51724;SDS011;37801;53.224;6.552;2023-05-27T11:03:27;9.40;;;3.97;;
51724;SDS011;37801;53.224;6.552;2023-05-27T11:06:03;14.25;;;4.00;;
51724;SDS011;37801;53.224;6.552;2023-05-27T11:08:30;11.07;;;4.10;;
51724;SDS011;37801;53.224;6.552;2023-05-27T11:11:00;14.90;;;4.65;;
51724;SDS011;37801;53.224;6.552;2023-05-27T11:16:02;11.45;;;3.97;;
51724;SDS011;37801;53.224;6.552;2023-05-27T11:18:39;11.75;;;4.20;;
51724;SDS011;37801;53.224;6.552;2023-05-27T11:21:06;11.68;;;4.32;;
51724;SDS011;37801;53.224;6.552;2023-05-27T11:23:36;13.15;;;3.95;;
51724;SDS011;37801;53.224;6.552;2023-05-27T11:26:10;10.65;;;3.83;;
51724;SDS011;37801;53.224;6.552;2023-05-27T11:28:37;11.25;;;3.83;;
51724;SDS011;37801;53.224;6.552;2023-05-27T11:31:03;12.57;;;3.88;;
51724;SDS011;37801;53.224;6.552;2023-05-27T11:33:30;12.07;;;4.28;;
51724;SDS011;37801;53.224;6.552;2023-05-27T11:36:06;15.93;;;4.45;;
51724;SDS011;37801;53.224;6.552;2023-05-27T11:38:49;15.38;;;4.22;;
51724;SDS011;37801;53.224;6.552;2023-05-27T11:41:16;14.20;;;3.97;;
51724;SDS011;37801;53.224;6.552;2023-05-27T11:43:49;14.73;;;4.90;;
51724;SDS011;37801;53.224;6.552;2023-05-27T11:48:42;11.13;;;4.13;;
51724;SDS011;37801;53.224;6.552;2023-05-27T11:51:09;10.82;;;4.28;;
51724;SDS011;37801;53.224;6.552;2023-05-27T11:53:39;12.23;;;4.18;;
51724;SDS011;37801;53.224;6.552;2023-05-27T11:56:06;11.52;;;4.05;;
51724;SDS011;37801;53.224;6.552;2023-05-27T11:58:32;13.48;;;4.65;;
51724;SDS011;37801;53.224;6.552;2023-05-27T12:00:58;16.55;;;4.55;;
51724;SDS011;37801;53.224;6.552;2023-05-27T12:03:25;15.00;;;4.32;;
51724;SDS011;37801;53.224;6.552;2023-05-27T12:05:51;16.85;;;4.93;;
51724;SDS011;37801;53.224;6.552;2023-05-27T12:08:17;15.00;;;4.70;;
51724;SDS011;37801;53.224;6.552;2023-05-27T12:10:43;11.77;;;4.38;;
51724;SDS011;37801;53.224;6.552;2023-05-27T12:13:15;13.35;;;4.40;;
51724;SDS011;37801;53.224;6.552;2023-05-27T12:15:41;18.58;;;4.78;;
51724;SDS011;37801;53.224;6.552;2023-05-27T12:18:07;14.77;;;5.13;;
51724;SDS011;37801;53.224;6.552;2023-05-27T12:20:33;13.27;;;4.43;;
51724;SDS011;37801;53.224;6.552;2023-05-27T12:22:59;14.13;;;5.10;;
51724;SDS011;37801;53.224;6.552;2023-05-27T12:25:26;11.07;;;4.13;;
51724;SDS011;37801;53.224;6.552;2023-05-27T12:27:52;10.90;;;3.80;;
51724;SDS011;37801;53.224;6.552;2023-05-27T12:30:18;12.75;;;4.82;;
51724;SDS011;37801;53.224;6.552;2023-05-27T12:32:44;15.82;;;4.00;;
51724;SDS011;37801;53.224;6.552;2023-05-27T12:35:10;11.95;;;3.80;;
51724;SDS011;37801;53.224;6.552;2023-05-27T12:37:37;12.35;;;3.88;;
51724;SDS011;37801;53.224;6.552;2023-05-27T12:40:03;11.55;;;4.13;;
51724;SDS011;37801;53.224;6.552;2023-05-27T12:42:30;10.45;;;3.72;;
51724;SDS011;37801;53.224;6.552;2023-05-27T12:44:57;15.52;;;4.10;;
51724;SDS011;37801;53.224;6.552;2023-05-27T12:47:24;11.35;;;3.63;;
51724;SDS011;37801;53.224;6.552;2023-05-27T12:49:50;14.18;;;4.03;;
51724;SDS011;37801;53.224;6.552;2023-05-27T12:52:16;11.15;;;4.15;;
51724;SDS011;37801;53.224;6.552;2023-05-27T12:54:42;11.27;;;3.60;;
51724;SDS011;37801;53.224;6.552;2023-05-27T12:57:08;10.18;;;3.70;;
51724;SDS011;37801;53.224;6.552;2023-05-27T12:59:34;11.13;;;4.45;;
51724;SDS011;37801;53.224;6.552;2023-05-27T13:02:00;15.23;;;5.00;;
51724;SDS011;37801;53.224;6.552;2023-05-27T13:04:27;12.10;;;4.40;;
51724;SDS011;37801;53.224;6.552;2023-05-27T13:06:53;10.88;;;3.95;;
51724;SDS011;37801;53.224;6.552;2023-05-27T13:09:19;12.98;;;4.53;;
51724;SDS011;37801;53.224;6.552;2023-05-27T13:11:45;14.48;;;4.45;;
51724;SDS011;37801;53.224;6.552;2023-05-27T13:14:12;15.90;;;4.72;;
51724;SDS011;37801;53.224;6.552;2023-05-27T13:16:38;13.93;;;5.03;;
51724;SDS011;37801;53.224;6.552;2023-05-27T13:19:05;14.93;;;4.72;;
51724;SDS011;37801;53.224;6.552;2023-05-27T13:21:31;10.90;;;4.43;;
51724;SDS011;37801;53.224;6.552;2023-05-27T13:23:57;12.40;;;4.70;;
51724;SDS011;37801;53.224;6.552;2023-05-27T13:26:23;14.00;;;4.60;;
51724;SDS011;37801;53.224;6.552;2023-05-27T13:28:51;12.98;;;4.72;;
51724;SDS011;37801;53.224;6.552;2023-05-27T13:31:17;11.25;;;4.10;;
51724;SDS011;37801;53.224;6.552;2023-05-27T13:33:43;11.77;;;4.68;;
51724;SDS011;37801;53.224;6.552;2023-05-27T13:36:09;14.43;;;4.65;;
51724;SDS011;37801;53.224;6.552;2023-05-27T13:38:35;12.68;;;4.82;;
51724;SDS011;37801;53.224;6.552;2023-05-27T13:41:02;14.18;;;4.45;;
51724;SDS011;37801;53.224;6.552;2023-05-27T13:43:28;12.18;;;3.72;;
51724;SDS011;37801;53.224;6.552;2023-05-27T13:45:54;12.52;;;4.55;;
51724;SDS011;37801;53.224;6.552;2023-05-27T13:48:20;11.43;;;4.28;;
51724;SDS011;37801;53.224;6.552;2023-05-27T13:50:47;12.23;;;4.05;;
51724;SDS011;37801;53.224;6.552;2023-05-27T13:53:13;17.98;;;5.25;;
51724;SDS011;37801;53.224;6.552;2023-05-27T13:55:39;14.40;;;4.80;;
51724;SDS011;37801;53.224;6.552;2023-05-27T13:58:06;12.82;;;4.20;;
51724;SDS011;37801;53.224;6.552;2023-05-27T14:00:32;15.48;;;4.10;;
51724;SDS011;37801;53.224;6.552;2023-05-27T14:02:58;11.68;;;4.28;;
51724;SDS011;37801;53.224;6.552;2023-05-27T14:05:25;13.82;;;4.20;;
51724;SDS011;37801;53.224;6.552;2023-05-27T14:07:52;13.32;;;4.68;;
51724;SDS011;37801;53.224;6.552;2023-05-27T14:10:18;15.60;;;4.88;;
51724;SDS011;37801;53.224;6.552;2023-05-27T14:12:44;13.55;;;4.72;;
51724;SDS011;37801;53.224;6.552;2023-05-27T14:15:11;15.98;;;4.68;;
51724;SDS011;37801;53.224;6.552;2023-05-27T14:17:37;14.60;;;4.57;;
51724;SDS011;37801;53.224;6.552;2023-05-27T14:20:04;12.10;;;3.95;;
51724;SDS011;37801;53.224;6.552;2023-05-27T14:22:35;12.15;;;4.25;;
51724;SDS011;37801;53.224;6.552;2023-05-27T14:25:02;17.92;;;4.40;;
51724;SDS011;37801;53.224;6.552;2023-05-27T14:27:29;13.00;;;4.68;;
51724;SDS011;37801;53.224;6.552;2023-05-27T14:29:55;13.60;;;4.40;;
51724;SDS011;37801;53.224;6.552;2023-05-27T14:32:21;17.70;;;4.60;;
51724;SDS011;37801;53.224;6.552;2023-05-27T14:34:47;14.82;;;4.63;;
51724;SDS011;37801;53.224;6.552;2023-05-27T14:37:13;14.77;;;4.75;;
51724;SDS011;37801;53.224;6.552;2023-05-27T14:39:39;16.88;;;4.57;;
51724;SDS011;37801;53.224;6.552;2023-05-27T14:42:05;17.58;;;5.00;;
51724;SDS011;37801;53.224;6.552;2023-05-27T14:44:33;15.30;;;4.78;;
51724;SDS011;37801;53.224;6.552;2023-05-27T14:47:01;14.85;;;4.38;;
51724;SDS011;37801;53.224;6.552;2023-05-27T14:49:27;15.73;;;4.43;;
51724;SDS011;37801;53.224;6.552;2023-05-27T14:51:53;13.20;;;4.30;;